Flight Track Log - Related Links

Times and Time Zones

All times are in EDT time to prevent confusion due to time zone crossing. See the SWA158 flight status page for this flight to view local times or setup timezone preferences in your user account.

Time Position Orientation Groundspeed Altitude Reporting Facility
EDT Latitude Longitude Course Direction KTS MPH feet Rate Location/Type
Tue 10:51:09 AM 40.8056 -111.9628 354° North 171 197 4,900  Level Salt Lake Center
Tue 10:51:25 AM 40.8178 -111.9644 354° North 158 182 5,500 1,556 Climbing Salt Lake Center
Tue 10:52:03 AM 40.8519 -111.9694 354° North 194 223 6,300 1,355 Climbing Salt Lake Center
Tue 10:52:27 AM 40.8744 -111.9736 352° North 207 238 6,900 2,060 Climbing Salt Lake Center
Tue 10:53:10 AM 40.9314 -111.9794 356° North 262 302 8,600 2,419 Climbing Salt Lake Center
Tue 10:53:29 AM 40.9536 -111.9831 353° North 259 298 9,400 3,443 Climbing Salt Lake Center
Tue 10:54:11 AM 41.0047 -111.9686 12° North 280 322 12,100 3,738 Climbing Salt Lake Center
Tue 10:54:30 AM 41.0172 -111.9431 57° Northeast 281 323 13,200 2,222 Climbing Salt Lake Center
Tue 10:55:32 AM 41.0247 -111.8256 85° East 329 379 15,100 2,274 Climbing Salt Lake Center
Tue 10:56:34 AM 41.0317 -111.6800 86° East 364 419 17,900 2,683 Climbing Salt Lake Center
Tue 10:57:35 AM 41.0403 -111.5392 85° East 383 441 20,600 2,488 Climbing Salt Lake Center
Tue 10:58:37 AM 41.0481 -111.3914 86° East 400 460 23,000 2,293 Climbing Salt Lake Center
Tue 10:59:38 AM 41.0614 -111.2350 83° East 414 476 25,300 2,000 Climbing Salt Lake Center
Tue 11:00:40 AM 41.0747 -111.0858 83° East 423 487 27,100 1,742 Climbing Salt Lake Center
Tue 11:01:42 AM 41.1144 -110.9167 73° East 430 495 28,900 1,512 Climbing Salt Lake Center
Tue 11:02:43 AM 41.1525 -110.7664 71° East 444 511 30,200 1,463 Climbing Salt Lake Center
Tue 11:03:45 AM 41.1981 -110.5853 71° East 459 528 31,900 1,210 Climbing Salt Lake Center
Tue 11:04:47 AM 41.2392 -110.4303 71° East 463 533 32,700 976 Climbing Salt Lake Center
Tue 11:05:48 AM 41.2806 -110.2667 71° East 480 552 33,900 1,415 Climbing Salt Lake Center
Tue 11:06:50 AM 41.3283 -110.0778 71° East 484 557 35,600 1,500 Climbing Salt Lake Center
Tue 11:07:52 AM 41.3692 -109.9164 71° East 482 555 37,000 683 Climbing Salt Lake Center
Tue 11:08:53 AM 41.4153 -109.7292 72° East 477 549 37,000  Level Salt Lake Center
Tue 11:09:55 AM 41.4547 -109.5697 72° East 475 547 37,000  Level Salt Lake Center
Tue 11:10:57 AM 41.5008 -109.3817 72° East 475 547 37,000  Level Salt Lake Center
Tue 11:11:58 AM 41.5400 -109.2200 72° East 474 545 37,000  Level Salt Lake Center
Tue 11:13:00 AM 41.5794 -109.0572 72° East 471 542 37,000  Level Salt Lake Center
Tue 11:14:02 AM 41.6025 -108.8592 81° East 480 552 37,000  Level Salt Lake Center
Tue 11:15:04 AM 41.6161 -108.6894 84° East 479 551 37,000  Level Salt Lake Center
Tue 11:16:05 AM 41.6286 -108.5194 84° East 480 552 37,000  Level Salt Lake Center
Tue 11:17:07 AM 41.6433 -108.3200 84° East 482 555 37,000  Level Salt Lake Center
Tue 11:18:19 AM 41.6578 -108.1194 84° East 484 557 37,000  Level Denver Center
Tue 11:19:21 AM 41.6717 -107.9203 85° East 483 556 37,000  Level Denver Center
Tue 11:20:23 AM 41.6836 -107.7475 85° East 485 558 37,000  Level Denver Center
Tue 11:21:25 AM 41.6967 -107.5478 85° East 484 557 37,000  Level Denver Center
Tue 11:22:27 AM 41.7072 -107.3750 85° East 486 559 37,000  Level Denver Center
Tue 11:23:29 AM 41.7206 -107.1756 85° East 483 556 37,000  Level Denver Center
Tue 11:24:32 AM 41.7322 -107.0042 85° East 484 557 37,000  Level Denver Center
Tue 11:25:34 AM 41.7428 -106.8042 86° East 484 557 37,000  Level Denver Center
Tue 11:26:36 AM 41.7539 -106.6333 85° East 483 556 37,000  Level Denver Center
Tue 11:27:38 AM 41.7642 -106.4475 86° East 482 555 37,000  Level Denver Center
Tue 11:28:40 AM 41.7767 -106.2494 85° East 480 552 37,000  Level Denver Center
Tue 11:29:42 AM 41.7864 -106.0781 86° East 482 555 37,000  Level Denver Center
Tue 11:30:44 AM 41.7961 -105.8778 86° East 484 557 37,000  Level Denver Center
Tue 11:31:46 AM 41.8039 -105.7031 87° East 491 565 37,000  Level Denver Center
Tue 11:32:48 AM 41.8125 -105.5308 86° East 487 560 37,000  Level Denver Center
Tue 11:33:50 AM 41.8222 -105.3303 86° East 484 557 37,000  Level Denver Center
Tue 11:34:52 AM 41.8303 -105.1550 86° East 490 564 37,000  Level Denver Center
Tue 11:35:54 AM 41.8394 -104.9514 86° East 492 566 37,000  Level Denver Center
Tue 11:36:56 AM 41.8467 -104.7764 87° East 494 568 37,000  Level Denver Center
Tue 11:37:58 AM 41.8550 -104.5733 87° East 491 565 37,000  Level Denver Center
Tue 11:39:00 AM 41.8619 -104.3994 87° East 490 564 37,000  Level Denver Center
Tue 11:40:02 AM 41.8689 -104.1967 87° East 488 562 37,000  Level Denver Center
Tue 11:41:04 AM 41.8756 -104.0233 87° East 488 562 37,000  Level Denver Center
Tue 11:42:06 AM 41.8814 -103.8183 88° East 492 566 37,000  Level Denver Center
Tue 11:43:09 AM 41.8836 -103.6467 89° East 485 558 37,000  Level Denver Center
Tue 11:44:11 AM 41.8883 -103.4422 88° East 491 565 37,000  Level Denver Center
Tue 11:45:13 AM 41.8919 -103.2661 88° East 494 568 37,000  Level Denver Center
Tue 11:46:15 AM 41.8956 -103.0589 89° East 500 575 37,000  Level Denver Center
Tue 11:47:17 AM 41.8986 -102.8794 89° East 503 579 37,000  Level Denver Center
Tue 11:48:19 AM 41.9003 -102.6700 89° East 504 580 37,000  Level Denver Center
Tue 11:49:21 AM 41.9042 -102.4897 88° East 507 583 37,000  Level Denver Center
Tue 11:50:23 AM 41.9047 -102.2800 90° East 505 581 37,000  Level Denver Center
Tue 11:51:25 AM 41.9072 -102.0817 89° East 508 585 37,000  Level Denver Center
Tue 11:52:27 AM 41.9083 -101.9006 89° East 506 582 37,000  Level Denver Center
Tue 11:53:29 AM 41.9108 -101.6875 89° East 510 587 37,000  Level Denver Center
Tue 11:54:31 AM 41.9114 -101.5067 90° East 507 583 37,000  Level Denver Center
Tue 11:55:33 AM 41.9111 -101.2953 90° East 507 583 37,000  Level Denver Center
Tue 11:56:35 AM 41.9117 -101.1139 90° East 506 582 37,000  Level Denver Center
Tue 11:57:37 AM 41.9117 -100.9317 90° East 508 585 37,000  Level Denver Center
Tue 11:58:39 AM 41.9114 -100.7178 90° East 511 588 37,000  Level Denver Center
Tue 11:59:42 AM 41.9103 -100.5331 90° East 515 593 37,000  Level Denver Center
Tue 12:00:44 PM 41.9089 -100.3208 90° East 511 588 37,000  Level Denver Center
Tue 12:01:46 PM 41.9081 -100.1361 90° East 513 590 37,000  Level Denver Center
Tue 12:02:25 PM 41.9075 -99.9950 90° East 514 592 37,000  Level Minneapolis Center
Tue 12:02:48 PM 41.9056 -99.9192 92° East 518 596 37,000  Level Denver Center
Tue 12:03:50 PM 41.9036 -99.7231 91° East 518 596 37,000  Level Denver Center
Tue 12:04:52 PM 41.9017 -99.5264 91° East 522 601 37,000  Level Denver Center
Tue 12:05:54 PM 41.8981 -99.3328 91° East 519 597 37,000  Level Denver Center
Tue 12:06:56 PM 41.8953 -99.1350 91° East 525 604 37,000  Level Denver Center
Tue 12:07:34 PM 41.8928 -99.0175 92° East 523 602 37,000  Level Minneapolis Center
Tue 12:08:36 PM 41.8894 -98.8206 91° East 525 604 37,000  Level Minneapolis Center
Tue 12:09:38 PM 41.8850 -98.6219 92° East 527 606 37,000  Level Minneapolis Center
Tue 12:10:40 PM 41.8792 -98.3858 92° East 525 604 37,000  Level Minneapolis Center
Tue 12:11:42 PM 41.8750 -98.1892 92° East 525 604 37,000  Level Minneapolis Center
Tue 12:12:44 PM 41.8708 -98.0092 92° East 522 601 37,000  Level Minneapolis Center
Tue 12:13:46 PM 41.8653 -97.8153 92° East 521 600 37,000  Level Minneapolis Center
Tue 12:14:48 PM 41.8592 -97.6211 92° East 521 600 37,000  Level Minneapolis Center
Tue 12:15:49 PM 41.8531 -97.3889 92° East 521 600 37,000  Level Minneapolis Center
Tue 12:16:51 PM 41.8467 -97.1944 92° East 521 600 37,000  Level Minneapolis Center
Tue 12:17:53 PM 41.8386 -97.0008 93° East 520 598 37,000  Level Minneapolis Center
Tue 12:19:07 PM 41.8314 -96.8072 93° East 520 598 37,000  Level Minneapolis Center
Tue 12:20:08 PM 41.8242 -96.6128 93° East 519 597 37,000  Level Minneapolis Center
Tue 12:21:11 PM 41.8153 -96.3811 93° East 518 596 37,000  Level Minneapolis Center
Tue 12:22:12 PM 41.8064 -96.1869 93° East 517 595 37,000  Level Minneapolis Center
Tue 12:23:14 PM 41.7986 -95.9914 93° East 519 597 37,000  Level Minneapolis Center
Tue 12:24:16 PM 41.7897 -95.7967 93° East 521 600 37,000  Level Minneapolis Center
Tue 12:25:29 PM 41.7789 -95.5647 94° East 519 597 37,000  Level Minneapolis Center
Tue 12:26:31 PM 41.7675 -95.3353 94° East 514 592 37,000  Level Minneapolis Center
Tue 12:27:33 PM 41.7569 -95.1433 94° East 514 592 37,000  Level Minneapolis Center
Tue 12:28:35 PM 41.7469 -94.9514 94° East 515 593 37,000  Level Minneapolis Center
Tue 12:29:36 PM 41.7344 -94.7586 95° East 519 597 37,000  Level Minneapolis Center
Tue 12:30:38 PM 41.7247 -94.5669 94° East 517 595 37,000  Level Minneapolis Center
Tue 12:31:40 PM 41.7139 -94.3767 94° East 513 590 37,000  Level Minneapolis Center
Tue 12:32:42 PM 41.7031 -94.1881 94° East 510 587 37,000  Level Minneapolis Center
Tue 12:33:43 PM 41.6894 -93.9606 95° East 509 586 37,000  Level Minneapolis Center
Tue 12:34:45 PM 41.6789 -93.8067 95° East 509 586 37,000  Level Minneapolis Center
Tue 12:35:47 PM 41.6642 -93.5803 95° East 510 587 37,000  Level Minneapolis Center
Tue 12:36:49 PM 41.6456 -93.3911 97° East 513 590 37,000  Level Minneapolis Center
Tue 12:37:51 PM 41.6231 -93.2050 99° East 512 589 37,000  Level Minneapolis Center
Tue 12:38:52 PM 41.6019 -93.0200 99° East 508 585 37,000  Level Minneapolis Center
Tue 12:39:54 PM 41.5814 -92.8347 98° East 507 583 37,000 -339 Level Minneapolis Center
Tue 12:40:56 PM 41.5600 -92.6511 99° East 504 580 36,300 -871 Descending Minneapolis Center
Tue 12:41:58 PM 41.5333 -92.4272 99° East 507 583 35,200 -1,024 Descending Minneapolis Center
Tue 12:42:59 PM 41.5111 -92.2386 99° East 513 590 34,200 -908 Descending Minneapolis Center
Tue 12:43:57 PM 41.4928 -92.0819 99° East 515 593 33,400 -600 Descending Chicago Center
Tue 12:44:59 PM 41.4656 -91.8631 99° East 506 582 33,000 -484 Descending Chicago Center
Tue 12:46:01 PM 41.4422 -91.6747 99° East 516 594 32,400 -774 Descending Chicago Center
Tue 12:47:03 PM 41.4186 -91.4894 100° East 515 593 31,400 -878 Descending Chicago Center
Tue 12:48:04 PM 41.3928 -91.2881 100° East 507 583 30,600 -976 Descending Chicago Center
Tue 12:49:06 PM 41.3694 -91.1050 100° East 502 578 29,400 -1,645 Descending Chicago Center
Tue 12:50:08 PM 41.3450 -90.9283 100° East 489 563 27,200 -2,177 Descending Chicago Center
Tue 12:51:10 PM 41.3222 -90.7575 100° East 472 543 24,900 -1,548 Descending Chicago Center
Tue 12:52:12 PM 41.3006 -90.5908 100° East 460 529 24,000 -581 Descending Chicago Center
Tue 12:53:14 PM 41.2797 -90.4378 100° East 427 491 23,700 -726 Descending Chicago Center
Tue 12:54:16 PM 41.2597 -90.2922 100° East 404 465 22,500 -1,317 Descending Chicago Center
Tue 12:55:17 PM 41.1997 -90.1686 123° Southeast 353 406 21,000 -1,171 Descending Chicago Center
Tue 12:56:19 PM 41.1131 -90.1536 173° South 315 362 20,100 -919 Descending Chicago Center
Tue 12:57:21 PM 41.0475 -90.0708 136° Southeast 345 397 19,100 -968 Descending Chicago Center
Tue 12:58:23 PM 40.9931 -89.9553 122° Southeast 347 399 18,100 -919 Descending Chicago Center
Tue 12:59:25 PM 40.9406 -89.8519 124° Southeast 341 392 17,200 -919 Descending Chicago Center
Tue 01:00:27 PM 40.9039 -89.7411 114° Southeast 344 396 16,200 -976 Descending Chicago Center
Tue 01:01:28 PM 40.9347 -89.6194 71° East 359 413 15,200 -976 Descending Chicago Center
Tue 01:02:30 PM 40.9689 -89.4964 70° East 357 411 14,200 -1,065 Descending Chicago Center
Tue 01:03:32 PM 40.9872 -89.3539 80° East 342 394 13,000 -1,065 Descending Chicago Center
Tue 01:04:34 PM 40.9836 -89.2394 92° East 319 367 12,000 -968 Descending Chicago Center
Tue 01:05:36 PM 41.0117 -89.1328 71° East 315 362 11,000 -823 Descending Chicago Center
Tue 01:06:38 PM 41.0711 -89.0444 48° Northeast 318 366 10,300 -439 Descending Chicago Center
Tue 01:07:39 PM 41.1253 -88.9639 48° Northeast 299 344 10,100 -390 Descending Chicago Center
Tue 01:08:41 PM 41.1850 -88.8719 49° Northeast 279 321 9,500 -774 Descending Chicago Center
Tue 01:09:43 PM 41.2372 -88.7939 48° Northeast 281 323 8,500 -968 Descending Chicago Center
Tue 01:10:45 PM 41.2878 -88.7164 49° Northeast 279 321 7,500 -976 Descending Chicago Center
Tue 01:11:46 PM 41.3372 -88.6392 50° Northeast 276 318 6,500 -732 Descending Chicago Center
Tue 01:12:48 PM 41.3878 -88.5639 48° Northeast 274 315 6,000 -242 Descending Chicago Center
Tue 01:13:50 PM 41.4347 -88.4906 49° Northeast 264 304 6,000  Level Chicago Center
Tue 01:14:52 PM 41.4819 -88.4175 49° Northeast 259 298 6,000  Level Chicago Center
Tue 01:15:54 PM 41.5239 -88.3181 61° Northeast 256 295 6,000  Level Chicago Center
Tue 01:16:55 PM 41.5569 -88.2347 62° Northeast 253 291 6,000 -390 Level Chicago Center
Tue 01:17:57 PM 41.5775 -88.1461 73° East 255 293 5,200 -484 Descending Chicago Center
Tue 01:18:59 PM 41.5842 -88.0547 84° East 247 284 5,000 -97 Descending Chicago Center
Tue 01:20:01 PM 41.5931 -87.9653 82° East 244 281 5,000 -97 Level Chicago Center
Tue 01:21:03 PM 41.6011 -87.8750 83° East 244 281 4,800 -677 Descending Chicago Center
Tue 01:22:05 PM 41.6086 -87.7856 84° East 243 280 3,600 -871 Descending Chicago Center
Tue 01:23:07 PM 41.5886 -87.7128 110° East 224 258 3,000 -293 Descending Chicago Center
Tue 01:24:08 PM 41.6019 -87.6356 77° East 208 239 3,000 -49 Level Chicago Center
Tue 01:25:10 PM 41.6414 -87.6025 32° Northeast 203 234 2,900 -242 Descending Chicago Center
Tue 01:26:12 PM 41.6892 -87.6236 342° North 191 220 2,500 -264 Descending Chicago Center
Tue 01:26:41 PM 41.7000 -87.6500 299° West 171 197 2,500 -404 Level Chicago TRACON
Tue 01:27:41 PM 41.7333 -87.6833 323° Northwest 132 152 1,900 -700 Descending Chicago TRACON
Tue 01:28:41 PM 41.7667 -87.7167 323° Northwest 135 155 1,100 -800 Descending Chicago TRACON

Login

Don't have an account? Register now (free) for customized features, flight alerts, and more!